sensor_id;sensor_type;location;lat;lon;timestamp;P1;durP1;ratioP1;P2;durP2;ratioP2
47429;SDS011;33181;49.246;7.372;2022-12-07T00:01:08;17.13;;;10.77;;
47429;SDS011;33181;49.246;7.372;2022-12-07T00:03:43;16.70;;;11.20;;
47429;SDS011;33181;49.246;7.372;2022-12-07T00:06:12;19.17;;;12.40;;
47429;SDS011;33181;49.246;7.372;2022-12-07T00:08:39;24.30;;;14.20;;
47429;SDS011;33181;49.246;7.372;2022-12-07T00:11:13;19.27;;;13.10;;
47429;SDS011;33181;49.246;7.372;2022-12-07T00:13:46;19.17;;;10.90;;
47429;SDS011;33181;49.246;7.372;2022-12-07T00:16:16;19.70;;;11.70;;
47429;SDS011;33181;49.246;7.372;2022-12-07T00:18:44;17.53;;;11.33;;
47429;SDS011;33181;49.246;7.372;2022-12-07T00:21:11;16.80;;;10.73;;
47429;SDS011;33181;49.246;7.372;2022-12-07T00:23:55;18.50;;;11.60;;
47429;SDS011;33181;49.246;7.372;2022-12-07T00:26:22;17.80;;;11.80;;
47429;SDS011;33181;49.246;7.372;2022-12-07T00:28:55;19.63;;;11.70;;
47429;SDS011;33181;49.246;7.372;2022-12-07T00:31:25;15.93;;;10.93;;
47429;SDS011;33181;49.246;7.372;2022-12-07T00:33:58;17.07;;;10.70;;
47429;SDS011;33181;49.246;7.372;2022-12-07T00:36:24;22.73;;;12.17;;
47429;SDS011;33181;49.246;7.372;2022-12-07T00:38:50;19.07;;;11.20;;
47429;SDS011;33181;49.246;7.372;2022-12-07T00:41:17;16.30;;;10.37;;
47429;SDS011;33181;49.246;7.372;2022-12-07T00:43:48;15.90;;;10.00;;
47429;SDS011;33181;49.246;7.372;2022-12-07T00:46:16;15.97;;;9.93;;
47429;SDS011;33181;49.246;7.372;2022-12-07T00:48:42;20.13;;;11.30;;
47429;SDS011;33181;49.246;7.372;2022-12-07T00:51:09;18.63;;;11.77;;
47429;SDS011;33181;49.246;7.372;2022-12-07T00:53:37;17.07;;;11.43;;
47429;SDS011;33181;49.246;7.372;2022-12-07T00:56:17;17.33;;;11.43;;
47429;SDS011;33181;49.246;7.372;2022-12-07T00:59:01;17.67;;;11.07;;
47429;SDS011;33181;49.246;7.372;2022-12-07T01:01:30;15.70;;;10.90;;
47429;SDS011;33181;49.246;7.372;2022-12-07T01:03:58;15.93;;;10.67;;
47429;SDS011;33181;49.246;7.372;2022-12-07T01:06:26;16.87;;;10.20;;
47429;SDS011;33181;49.246;7.372;2022-12-07T01:08:52;18.30;;;11.13;;
47429;SDS011;33181;49.246;7.372;2022-12-07T01:11:23;16.80;;;10.60;;
47429;SDS011;33181;49.246;7.372;2022-12-07T01:13:53;19.60;;;9.67;;
47429;SDS011;33181;49.246;7.372;2022-12-07T01:16:21;16.57;;;9.30;;
47429;SDS011;33181;49.246;7.372;2022-12-07T01:18:50;19.70;;;11.30;;
47429;SDS011;33181;49.246;7.372;2022-12-07T01:21:21;17.00;;;11.00;;
47429;SDS011;33181;49.246;7.372;2022-12-07T01:24:03;15.00;;;9.83;;
47429;SDS011;33181;49.246;7.372;2022-12-07T01:26:31;13.80;;;9.40;;
47429;SDS011;33181;49.246;7.372;2022-12-07T01:28:57;13.33;;;8.80;;
47429;SDS011;33181;49.246;7.372;2022-12-07T01:31:24;14.30;;;9.60;;
47429;SDS011;33181;49.246;7.372;2022-12-07T01:33:54;12.97;;;8.33;;
47429;SDS011;33181;49.246;7.372;2022-12-07T01:38:50;16.20;;;8.90;;
47429;SDS011;33181;49.246;7.372;2022-12-07T01:41:22;14.53;;;9.40;;
47429;SDS011;33181;49.246;7.372;2022-12-07T01:47:02;15.10;;;9.27;;
47429;SDS011;33181;49.246;7.372;2022-12-07T01:54:51;15.53;;;10.27;;
47429;SDS011;33181;49.246;7.372;2022-12-07T01:57:21;20.93;;;10.90;;
47429;SDS011;33181;49.246;7.372;2022-12-07T01:59:48;16.47;;;9.73;;
47429;SDS011;33181;49.246;7.372;2022-12-07T02:02:21;15.40;;;10.07;;
47429;SDS011;33181;49.246;7.372;2022-12-07T02:04:53;18.03;;;10.30;;
47429;SDS011;33181;49.246;7.372;2022-12-07T02:07:20;19.87;;;10.80;;
47429;SDS011;33181;49.246;7.372;2022-12-07T02:09:48;19.07;;;10.37;;
47429;SDS011;33181;49.246;7.372;2022-12-07T02:12:14;19.90;;;10.83;;
47429;SDS011;33181;49.246;7.372;2022-12-07T02:14:40;22.07;;;11.33;;
47429;SDS011;33181;49.246;7.372;2022-12-07T02:17:08;18.70;;;10.43;;
47429;SDS011;33181;49.246;7.372;2022-12-07T02:22:29;19.47;;;10.90;;
47429;SDS011;33181;49.246;7.372;2022-12-07T02:25:41;17.00;;;10.80;;
47429;SDS011;33181;49.246;7.372;2022-12-07T02:30:58;17.40;;;10.20;;
47429;SDS011;33181;49.246;7.372;2022-12-07T02:33:36;16.43;;;10.37;;
47429;SDS011;33181;49.246;7.372;2022-12-07T02:36:31;16.47;;;10.30;;
47429;SDS011;33181;49.246;7.372;2022-12-07T02:39:40;15.47;;;10.07;;
47429;SDS011;33181;49.246;7.372;2022-12-07T02:42:15;19.27;;;10.40;;
47429;SDS011;33181;49.246;7.372;2022-12-07T02:44:48;14.70;;;10.00;;
47429;SDS011;33181;49.246;7.372;2022-12-07T02:47:15;18.97;;;10.10;;
47429;SDS011;33181;49.246;7.372;2022-12-07T02:49:44;16.77;;;10.13;;
47429;SDS011;33181;49.246;7.372;2022-12-07T02:52:11;15.77;;;10.27;;
47429;SDS011;33181;49.246;7.372;2022-12-07T02:54:37;19.07;;;10.37;;
47429;SDS011;33181;49.246;7.372;2022-12-07T03:00:18;19.17;;;10.83;;
47429;SDS011;33181;49.246;7.372;2022-12-07T03:08:47;16.23;;;10.00;;
47429;SDS011;33181;49.246;7.372;2022-12-07T03:11:46;17.77;;;10.97;;
47429;SDS011;33181;49.246;7.372;2022-12-07T03:14:30;16.63;;;10.30;;
47429;SDS011;33181;49.246;7.372;2022-12-07T03:17:05;16.70;;;10.30;;
47429;SDS011;33181;49.246;7.372;2022-12-07T03:19:46;19.43;;;11.83;;
47429;SDS011;33181;49.246;7.372;2022-12-07T03:22:16;17.57;;;10.77;;
47429;SDS011;33181;49.246;7.372;2022-12-07T03:24:46;18.97;;;11.43;;
47429;SDS011;33181;49.246;7.372;2022-12-07T03:27:21;21.67;;;11.10;;
47429;SDS011;33181;49.246;7.372;2022-12-07T03:30:02;18.20;;;11.40;;
47429;SDS011;33181;49.246;7.372;2022-12-07T03:35:27;16.57;;;10.00;;
47429;SDS011;33181;49.246;7.372;2022-12-07T03:40:49;18.00;;;10.90;;
47429;SDS011;33181;49.246;7.372;2022-12-07T03:43:35;19.57;;;10.90;;
47429;SDS011;33181;49.246;7.372;2022-12-07T03:48:50;20.93;;;12.10;;
47429;SDS011;33181;49.246;7.372;2022-12-07T03:51:43;22.30;;;12.37;;
47429;SDS011;33181;49.246;7.372;2022-12-07T03:55:13;19.77;;;11.67;;
47429;SDS011;33181;49.246;7.372;2022-12-07T03:57:36;21.03;;;12.50;;
47429;SDS011;33181;49.246;7.372;2022-12-07T04:00:07;20.60;;;11.70;;
47429;SDS011;33181;49.246;7.372;2022-12-07T04:02:34;20.70;;;12.23;;
47429;SDS011;33181;49.246;7.372;2022-12-07T04:05:01;17.77;;;11.60;;
47429;SDS011;33181;49.246;7.372;2022-12-07T04:07:28;19.27;;;12.03;;
47429;SDS011;33181;49.246;7.372;2022-12-07T04:09:53;18.87;;;11.07;;
47429;SDS011;33181;49.246;7.372;2022-12-07T04:12:22;18.83;;;11.33;;
47429;SDS011;33181;49.246;7.372;2022-12-07T04:14:49;19.83;;;12.07;;
47429;SDS011;33181;49.246;7.372;2022-12-07T04:17:14;21.40;;;12.53;;
47429;SDS011;33181;49.246;7.372;2022-12-07T04:19:40;18.10;;;11.83;;
47429;SDS011;33181;49.246;7.372;2022-12-07T04:22:06;22.40;;;12.30;;
47429;SDS011;33181;49.246;7.372;2022-12-07T04:24:32;20.13;;;11.80;;
47429;SDS011;33181;49.246;7.372;2022-12-07T04:26:59;17.90;;;11.50;;
47429;SDS011;33181;49.246;7.372;2022-12-07T04:29:25;20.07;;;12.63;;
47429;SDS011;33181;49.246;7.372;2022-12-07T04:31:51;24.73;;;12.60;;
47429;SDS011;33181;49.246;7.372;2022-12-07T04:34:18;21.60;;;12.00;;
47429;SDS011;33181;49.246;7.372;2022-12-07T04:36:45;21.33;;;12.60;;
47429;SDS011;33181;49.246;7.372;2022-12-07T04:39:17;22.10;;;11.40;;
47429;SDS011;33181;49.246;7.372;2022-12-07T04:41:46;21.10;;;12.10;;
47429;SDS011;33181;49.246;7.372;2022-12-07T04:44:12;19.77;;;11.67;;
47429;SDS011;33181;49.246;7.372;2022-12-07T04:46:39;18.80;;;11.13;;
47429;SDS011;33181;49.246;7.372;2022-12-07T04:49:05;19.77;;;12.60;;
47429;SDS011;33181;49.246;7.372;2022-12-07T04:51:34;18.50;;;11.83;;
47429;SDS011;33181;49.246;7.372;2022-12-07T04:54:00;19.20;;;11.83;;
47429;SDS011;33181;49.246;7.372;2022-12-07T04:56:26;22.07;;;11.93;;
47429;SDS011;33181;49.246;7.372;2022-12-07T04:58:52;18.83;;;11.97;;
47429;SDS011;33181;49.246;7.372;2022-12-07T05:01:19;21.60;;;11.93;;
47429;SDS011;33181;49.246;7.372;2022-12-07T05:03:46;18.97;;;11.37;;
47429;SDS011;33181;49.246;7.372;2022-12-07T05:06:12;22.10;;;12.03;;
47429;SDS011;33181;49.246;7.372;2022-12-07T05:08:39;18.67;;;11.60;;
47429;SDS011;33181;49.246;7.372;2022-12-07T05:11:06;20.20;;;11.80;;
47429;SDS011;33181;49.246;7.372;2022-12-07T05:13:32;17.33;;;11.30;;
47429;SDS011;33181;49.246;7.372;2022-12-07T05:15:58;21.97;;;12.13;;
47429;SDS011;33181;49.246;7.372;2022-12-07T05:18:24;19.90;;;11.87;;
47429;SDS011;33181;49.246;7.372;2022-12-07T05:20:50;22.90;;;13.00;;
47429;SDS011;33181;49.246;7.372;2022-12-07T05:23:17;18.10;;;11.63;;
47429;SDS011;33181;49.246;7.372;2022-12-07T05:25:43;17.30;;;10.90;;
47429;SDS011;33181;49.246;7.372;2022-12-07T05:28:09;18.13;;;11.03;;
47429;SDS011;33181;49.246;7.372;2022-12-07T05:30:35;24.90;;;11.67;;
47429;SDS011;33181;49.246;7.372;2022-12-07T05:33:01;22.27;;;12.00;;
47429;SDS011;33181;49.246;7.372;2022-12-07T05:35:28;27.33;;;12.20;;
47429;SDS011;33181;49.246;7.372;2022-12-07T05:37:54;23.40;;;12.70;;
47429;SDS011;33181;49.246;7.372;2022-12-07T05:40:22;19.10;;;12.00;;
47429;SDS011;33181;49.246;7.372;2022-12-07T05:42:47;23.10;;;11.70;;
47429;SDS011;33181;49.246;7.372;2022-12-07T05:45:13;21.70;;;11.30;;
47429;SDS011;33181;49.246;7.372;2022-12-07T05:47:39;21.00;;;11.50;;
47429;SDS011;33181;49.246;7.372;2022-12-07T05:50:05;19.93;;;12.20;;
47429;SDS011;33181;49.246;7.372;2022-12-07T05:52:31;22.10;;;11.63;;
47429;SDS011;33181;49.246;7.372;2022-12-07T05:54:57;19.37;;;11.83;;
47429;SDS011;33181;49.246;7.372;2022-12-07T05:57:23;23.23;;;12.50;;
47429;SDS011;33181;49.246;7.372;2022-12-07T05:59:49;20.67;;;12.63;;
47429;SDS011;33181;49.246;7.372;2022-12-07T06:02:15;19.93;;;12.33;;
47429;SDS011;33181;49.246;7.372;2022-12-07T06:04:43;21.47;;;12.53;;
47429;SDS011;33181;49.246;7.372;2022-12-07T06:07:11;20.63;;;12.70;;
47429;SDS011;33181;49.246;7.372;2022-12-07T06:09:39;21.87;;;12.53;;
47429;SDS011;33181;49.246;7.372;2022-12-07T06:12:05;20.50;;;12.37;;
47429;SDS011;33181;49.246;7.372;2022-12-07T06:14:52;20.63;;;12.50;;
47429;SDS011;33181;49.246;7.372;2022-12-07T06:17:18;25.00;;;13.50;;
47429;SDS011;33181;49.246;7.372;2022-12-07T06:19:44;23.23;;;13.67;;
47429;SDS011;33181;49.246;7.372;2022-12-07T06:22:10;19.83;;;12.00;;
47429;SDS011;33181;49.246;7.372;2022-12-07T06:24:37;23.73;;;14.90;;
47429;SDS011;33181;49.246;7.372;2022-12-07T06:27:06;20.20;;;11.83;;
47429;SDS011;33181;49.246;7.372;2022-12-07T06:29:32;18.20;;;12.03;;
47429;SDS011;33181;49.246;7.372;2022-12-07T06:31:57;23.73;;;13.20;;
47429;SDS011;33181;49.246;7.372;2022-12-07T06:34:24;21.27;;;12.77;;
47429;SDS011;33181;49.246;7.372;2022-12-07T06:36:51;16.90;;;11.50;;
47429;SDS011;33181;49.246;7.372;2022-12-07T06:39:19;20.20;;;12.27;;
47429;SDS011;33181;49.246;7.372;2022-12-07T06:41:47;21.70;;;12.87;;
47429;SDS011;33181;49.246;7.372;2022-12-07T06:44:13;25.50;;;13.37;;
47429;SDS011;33181;49.246;7.372;2022-12-07T06:46:38;52.07;;;25.07;;
47429;SDS011;33181;49.246;7.372;2022-12-07T06:49:04;36.20;;;19.93;;
47429;SDS011;33181;49.246;7.372;2022-12-07T06:51:31;52.03;;;28.73;;
47429;SDS011;33181;49.246;7.372;2022-12-07T06:54:00;41.73;;;21.73;;
47429;SDS011;33181;49.246;7.372;2022-12-07T06:56:25;28.20;;;16.80;;
47429;SDS011;33181;49.246;7.372;2022-12-07T06:58:51;23.67;;;13.70;;
47429;SDS011;33181;49.246;7.372;2022-12-07T07:01:17;21.53;;;13.00;;
47429;SDS011;33181;49.246;7.372;2022-12-07T07:03:44;43.77;;;23.67;;
47429;SDS011;33181;49.246;7.372;2022-12-07T07:06:10;31.10;;;17.93;;
47429;SDS011;33181;49.246;7.372;2022-12-07T07:08:37;24.80;;;15.00;;
47429;SDS011;33181;49.246;7.372;2022-12-07T07:11:04;27.27;;;15.40;;
47429;SDS011;33181;49.246;7.372;2022-12-07T07:13:32;22.20;;;13.90;;
47429;SDS011;33181;49.246;7.372;2022-12-07T07:15:58;27.70;;;14.73;;
47429;SDS011;33181;49.246;7.372;2022-12-07T07:18:24;24.17;;;14.70;;
47429;SDS011;33181;49.246;7.372;2022-12-07T07:20:51;22.73;;;12.80;;
47429;SDS011;33181;49.246;7.372;2022-12-07T07:23:17;24.77;;;14.13;;
47429;SDS011;33181;49.246;7.372;2022-12-07T07:25:44;32.70;;;16.80;;
47429;SDS011;33181;49.246;7.372;2022-12-07T07:28:10;31.10;;;18.33;;
47429;SDS011;33181;49.246;7.372;2022-12-07T07:30:36;27.00;;;15.60;;
47429;SDS011;33181;49.246;7.372;2022-12-07T07:33:04;24.93;;;15.00;;
47429;SDS011;33181;49.246;7.372;2022-12-07T07:35:31;24.87;;;15.03;;
47429;SDS011;33181;49.246;7.372;2022-12-07T07:37:59;22.57;;;14.77;;
47429;SDS011;33181;49.246;7.372;2022-12-07T07:40:28;24.87;;;14.67;;
47429;SDS011;33181;49.246;7.372;2022-12-07T07:42:54;30.57;;;16.60;;
47429;SDS011;33181;49.246;7.372;2022-12-07T07:45:21;25.50;;;15.20;;
47429;SDS011;33181;49.246;7.372;2022-12-07T07:47:49;24.57;;;14.33;;
47429;SDS011;33181;49.246;7.372;2022-12-07T07:50:15;28.43;;;14.90;;
47429;SDS011;33181;49.246;7.372;2022-12-07T07:52:41;27.50;;;15.00;;
47429;SDS011;33181;49.246;7.372;2022-12-07T07:55:07;29.23;;;17.17;;
47429;SDS011;33181;49.246;7.372;2022-12-07T07:57:34;34.73;;;20.13;;
47429;SDS011;33181;49.246;7.372;2022-12-07T08:00:06;28.20;;;17.83;;
47429;SDS011;33181;49.246;7.372;2022-12-07T08:02:40;43.57;;;24.70;;
47429;SDS011;33181;49.246;7.372;2022-12-07T08:05:11;65.03;;;34.80;;
47429;SDS011;33181;49.246;7.372;2022-12-07T08:07:38;50.83;;;28.73;;
47429;SDS011;33181;49.246;7.372;2022-12-07T08:10:04;31.90;;;18.90;;
47429;SDS011;33181;49.246;7.372;2022-12-07T08:12:34;28.33;;;16.80;;
47429;SDS011;33181;49.246;7.372;2022-12-07T08:15:26;27.77;;;16.03;;
47429;SDS011;33181;49.246;7.372;2022-12-07T08:17:53;28.50;;;16.10;;
47429;SDS011;33181;49.246;7.372;2022-12-07T08:20:19;24.97;;;16.60;;
47429;SDS011;33181;49.246;7.372;2022-12-07T08:22:45;27.20;;;16.20;;
47429;SDS011;33181;49.246;7.372;2022-12-07T08:25:11;27.83;;;16.20;;
47429;SDS011;33181;49.246;7.372;2022-12-07T08:27:37;26.50;;;16.43;;
47429;SDS011;33181;49.246;7.372;2022-12-07T08:30:02;31.10;;;16.60;;
47429;SDS011;33181;49.246;7.372;2022-12-07T08:32:29;27.83;;;17.23;;
47429;SDS011;33181;49.246;7.372;2022-12-07T08:34:55;27.23;;;15.57;;
47429;SDS011;33181;49.246;7.372;2022-12-07T08:37:20;24.43;;;14.10;;
47429;SDS011;33181;49.246;7.372;2022-12-07T08:39:46;28.13;;;16.90;;
47429;SDS011;33181;49.246;7.372;2022-12-07T08:42:12;30.10;;;16.37;;
47429;SDS011;33181;49.246;7.372;2022-12-07T08:44:37;30.90;;;16.10;;
47429;SDS011;33181;49.246;7.372;2022-12-07T08:47:05;29.83;;;15.60;;
47429;SDS011;33181;49.246;7.372;2022-12-07T08:49:34;28.40;;;15.23;;
47429;SDS011;33181;49.246;7.372;2022-12-07T08:52:08;31.70;;;15.97;;
47429;SDS011;33181;49.246;7.372;2022-12-07T08:54:35;30.27;;;16.50;;
47429;SDS011;33181;49.246;7.372;2022-12-07T08:57:03;31.40;;;17.00;;
47429;SDS011;33181;49.246;7.372;2022-12-07T08:59:31;30.80;;;16.97;;
47429;SDS011;33181;49.246;7.372;2022-12-07T09:02:00;29.10;;;16.27;;
47429;SDS011;33181;49.246;7.372;2022-12-07T09:04:25;33.07;;;17.43;;
47429;SDS011;33181;49.246;7.372;2022-12-07T09:06:51;29.37;;;16.50;;
47429;SDS011;33181;49.246;7.372;2022-12-07T09:09:18;30.13;;;16.87;;
47429;SDS011;33181;49.246;7.372;2022-12-07T09:11:44;50.33;;;25.03;;
47429;SDS011;33181;49.246;7.372;2022-12-07T09:14:10;35.43;;;19.30;;
47429;SDS011;33181;49.246;7.372;2022-12-07T09:16:37;48.83;;;24.97;;
47429;SDS011;33181;49.246;7.372;2022-12-07T09:19:03;46.13;;;24.70;;
47429;SDS011;33181;49.246;7.372;2022-12-07T09:21:29;44.03;;;23.33;;
47429;SDS011;33181;49.246;7.372;2022-12-07T09:23:55;35.67;;;19.17;;
47429;SDS011;33181;49.246;7.372;2022-12-07T09:26:21;35.53;;;18.30;;
47429;SDS011;33181;49.246;7.372;2022-12-07T09:28:49;33.60;;;18.13;;
47429;SDS011;33181;49.246;7.372;2022-12-07T09:31:17;33.73;;;17.53;;
47429;SDS011;33181;49.246;7.372;2022-12-07T09:33:43;31.93;;;17.50;;
47429;SDS011;33181;49.246;7.372;2022-12-07T09:36:09;29.83;;;17.63;;
47429;SDS011;33181;49.246;7.372;2022-12-07T09:38:37;35.27;;;19.57;;
47429;SDS011;33181;49.246;7.372;2022-12-07T09:41:06;30.80;;;17.23;;
47429;SDS011;33181;49.246;7.372;2022-12-07T09:43:33;36.33;;;20.07;;
47429;SDS011;33181;49.246;7.372;2022-12-07T09:46:03;38.00;;;18.87;;
47429;SDS011;33181;49.246;7.372;2022-12-07T09:48:31;38.00;;;18.23;;
47429;SDS011;33181;49.246;7.372;2022-12-07T09:51:12;37.83;;;19.90;;
47429;SDS011;33181;49.246;7.372;2022-12-07T09:53:49;37.07;;;19.50;;
47429;SDS011;33181;49.246;7.372;2022-12-07T09:56:21;37.57;;;20.03;;
47429;SDS011;33181;49.246;7.372;2022-12-07T09:58:48;38.23;;;20.40;;
47429;SDS011;33181;49.246;7.372;2022-12-07T10:01:17;36.87;;;18.77;;
47429;SDS011;33181;49.246;7.372;2022-12-07T10:06:16;42.30;;;20.03;;
47429;SDS011;33181;49.246;7.372;2022-12-07T10:08:42;41.87;;;21.07;;
47429;SDS011;33181;49.246;7.372;2022-12-07T10:11:08;34.80;;;19.40;;
47429;SDS011;33181;49.246;7.372;2022-12-07T10:13:37;37.23;;;20.27;;
47429;SDS011;33181;49.246;7.372;2022-12-07T10:16:05;39.30;;;20.47;;
47429;SDS011;33181;49.246;7.372;2022-12-07T10:18:52;41.27;;;20.33;;
47429;SDS011;33181;49.246;7.372;2022-12-07T10:21:25;41.23;;;20.40;;
47429;SDS011;33181;49.246;7.372;2022-12-07T10:24:02;37.50;;;19.47;;
47429;SDS011;33181;49.246;7.372;2022-12-07T10:32:06;39.33;;;20.60;;
47429;SDS011;33181;49.246;7.372;2022-12-07T10:34:44;42.53;;;22.47;;
47429;SDS011;33181;49.246;7.372;2022-12-07T10:42:24;39.30;;;20.70;;
47429;SDS011;33181;49.246;7.372;2022-12-07T10:45:09;35.43;;;17.93;;
47429;SDS011;33181;49.246;7.372;2022-12-07T10:47:51;39.63;;;19.37;;
47429;SDS011;33181;49.246;7.372;2022-12-07T11:05:34;33.50;;;18.37;;
47429;SDS011;33181;49.246;7.372;2022-12-07T11:14:11;30.47;;;16.53;;
47429;SDS011;33181;49.246;7.372;2022-12-07T11:26:05;26.20;;;15.20;;
47429;SDS011;33181;49.246;7.372;2022-12-07T11:29:09;29.17;;;16.43;;
47429;SDS011;33181;49.246;7.372;2022-12-07T11:32:13;26.67;;;16.33;;
47429;SDS011;33181;49.246;7.372;2022-12-07T11:35:24;29.93;;;15.93;;
47429;SDS011;33181;49.246;7.372;2022-12-07T11:37:59;31.63;;;16.17;;
47429;SDS011;33181;49.246;7.372;2022-12-07T11:40:39;30.63;;;17.37;;
47429;SDS011;33181;49.246;7.372;2022-12-07T11:46:08;36.77;;;17.20;;
47429;SDS011;33181;49.246;7.372;2022-12-07T11:49:02;28.53;;;15.70;;
47429;SDS011;33181;49.246;7.372;2022-12-07T11:51:38;29.50;;;16.17;;
47429;SDS011;33181;49.246;7.372;2022-12-07T11:54:19;30.77;;;17.20;;
47429;SDS011;33181;49.246;7.372;2022-12-07T11:56:51;30.90;;;16.80;;
47429;SDS011;33181;49.246;7.372;2022-12-07T11:59:25;28.90;;;16.10;;
47429;SDS011;33181;49.246;7.372;2022-12-07T12:02:18;32.33;;;17.37;;
47429;SDS011;33181;49.246;7.372;2022-12-07T12:07:46;27.83;;;16.10;;
47429;SDS011;33181;49.246;7.372;2022-12-07T12:10:25;26.50;;;15.70;;
47429;SDS011;33181;49.246;7.372;2022-12-07T12:16:17;17.80;;;11.30;;
47429;SDS011;33181;49.246;7.372;2022-12-07T12:22:18;14.63;;;9.70;;
47429;SDS011;33181;49.246;7.372;2022-12-07T12:24:50;13.77;;;7.70;;
47429;SDS011;33181;49.246;7.372;2022-12-07T12:27:26;14.13;;;8.27;;
47429;SDS011;33181;49.246;7.372;2022-12-07T12:29:57;11.07;;;7.47;;
47429;SDS011;33181;49.246;7.372;2022-12-07T12:38:23;11.53;;;7.00;;
47429;SDS011;33181;49.246;7.372;2022-12-07T12:51:51;13.70;;;8.67;;
47429;SDS011;33181;49.246;7.372;2022-12-07T12:57:45;11.00;;;7.90;;
47429;SDS011;33181;49.246;7.372;2022-12-07T13:02:55;12.20;;;8.17;;
47429;SDS011;33181;49.246;7.372;2022-12-07T13:05:27;12.17;;;7.87;;
47429;SDS011;33181;49.246;7.372;2022-12-07T13:10:44;11.73;;;7.63;;
47429;SDS011;33181;49.246;7.372;2022-12-07T13:23:36;13.70;;;8.90;;
47429;SDS011;33181;49.246;7.372;2022-12-07T13:29:10;12.07;;;8.77;;
47429;SDS011;33181;49.246;7.372;2022-12-07T13:31:43;12.27;;;7.77;;
47429;SDS011;33181;49.246;7.372;2022-12-07T13:37:19;13.20;;;8.00;;
47429;SDS011;33181;49.246;7.372;2022-12-07T13:39:53;14.13;;;8.47;;
47429;SDS011;33181;49.246;7.372;2022-12-07T13:44:57;11.60;;;8.67;;
47429;SDS011;33181;49.246;7.372;2022-12-07T13:47:31;12.43;;;8.43;;
47429;SDS011;33181;49.246;7.372;2022-12-07T13:50:21;15.10;;;9.10;;
47429;SDS011;33181;49.246;7.372;2022-12-07T13:52:58;13.57;;;8.63;;
47429;SDS011;33181;49.246;7.372;2022-12-07T13:55:29;14.00;;;8.80;;
47429;SDS011;33181;49.246;7.372;2022-12-07T13:57:55;14.40;;;9.40;;
47429;SDS011;33181;49.246;7.372;2022-12-07T14:00:25;12.90;;;9.03;;
47429;SDS011;33181;49.246;7.372;2022-12-07T14:05:32;12.97;;;8.83;;
47429;SDS011;33181;49.246;7.372;2022-12-07T14:16:05;11.90;;;7.77;;
47429;SDS011;33181;49.246;7.372;2022-12-07T14:18:48;11.80;;;7.53;;
47429;SDS011;33181;49.246;7.372;2022-12-07T14:21:15;10.40;;;7.20;;
47429;SDS011;33181;49.246;7.372;2022-12-07T14:23:45;11.43;;;8.10;;
47429;SDS011;33181;49.246;7.372;2022-12-07T14:26:26;11.77;;;8.13;;
47429;SDS011;33181;49.246;7.372;2022-12-07T14:28:52;11.20;;;8.13;;
47429;SDS011;33181;49.246;7.372;2022-12-07T14:31:51;18.77;;;11.20;;
47429;SDS011;33181;49.246;7.372;2022-12-07T14:34:21;20.93;;;13.80;;
47429;SDS011;33181;49.246;7.372;2022-12-07T14:36:48;20.00;;;11.70;;
47429;SDS011;33181;49.246;7.372;2022-12-07T14:39:14;21.50;;;11.57;;
47429;SDS011;33181;49.246;7.372;2022-12-07T14:41:40;17.50;;;10.87;;
47429;SDS011;33181;49.246;7.372;2022-12-07T14:44:22;18.70;;;10.60;;
47429;SDS011;33181;49.246;7.372;2022-12-07T14:46:49;16.50;;;10.60;;
47429;SDS011;33181;49.246;7.372;2022-12-07T14:49:15;19.40;;;11.40;;
47429;SDS011;33181;49.246;7.372;2022-12-07T14:51:42;15.07;;;10.47;;
47429;SDS011;33181;49.246;7.372;2022-12-07T14:54:14;18.10;;;11.00;;
47429;SDS011;33181;49.246;7.372;2022-12-07T14:56:44;16.60;;;10.80;;
47429;SDS011;33181;49.246;7.372;2022-12-07T14:59:13;16.33;;;10.90;;
47429;SDS011;33181;49.246;7.372;2022-12-07T15:01:43;22.67;;;11.20;;
47429;SDS011;33181;49.246;7.372;2022-12-07T15:04:11;18.20;;;10.60;;
47429;SDS011;33181;49.246;7.372;2022-12-07T15:06:37;17.87;;;10.67;;
47429;SDS011;33181;49.246;7.372;2022-12-07T15:09:04;16.93;;;10.80;;
47429;SDS011;33181;49.246;7.372;2022-12-07T15:11:30;15.40;;;10.50;;
47429;SDS011;33181;49.246;7.372;2022-12-07T15:13:56;15.53;;;10.70;;
47429;SDS011;33181;49.246;7.372;2022-12-07T15:16:37;13.90;;;9.03;;
47429;SDS011;33181;49.246;7.372;2022-12-07T15:19:16;15.83;;;9.53;;
47429;SDS011;33181;49.246;7.372;2022-12-07T15:21:47;18.93;;;11.00;;
47429;SDS011;33181;49.246;7.372;2022-12-07T15:24:13;15.60;;;9.00;;
47429;SDS011;33181;49.246;7.372;2022-12-07T15:26:39;17.83;;;11.07;;
47429;SDS011;33181;49.246;7.372;2022-12-07T15:29:06;16.13;;;9.67;;
47429;SDS011;33181;49.246;7.372;2022-12-07T15:31:34;16.87;;;10.40;;
47429;SDS011;33181;49.246;7.372;2022-12-07T15:34:00;15.80;;;10.37;;
47429;SDS011;33181;49.246;7.372;2022-12-07T15:36:27;18.70;;;9.83;;
47429;SDS011;33181;49.246;7.372;2022-12-07T15:38:55;14.80;;;9.60;;
47429;SDS011;33181;49.246;7.372;2022-12-07T15:41:21;16.30;;;10.13;;
47429;SDS011;33181;49.246;7.372;2022-12-07T15:43:48;17.57;;;11.23;;
47429;SDS011;33181;49.246;7.372;2022-12-07T15:46:33;16.30;;;10.57;;
47429;SDS011;33181;49.246;7.372;2022-12-07T15:49:09;16.97;;;10.40;;
47429;SDS011;33181;49.246;7.372;2022-12-07T15:51:40;14.93;;;9.50;;
47429;SDS011;33181;49.246;7.372;2022-12-07T15:54:07;14.93;;;9.93;;
47429;SDS011;33181;49.246;7.372;2022-12-07T15:56:46;15.50;;;11.13;;
47429;SDS011;33181;49.246;7.372;2022-12-07T15:59:12;15.80;;;10.83;;
47429;SDS011;33181;49.246;7.372;2022-12-07T16:01:38;19.10;;;11.30;;
47429;SDS011;33181;49.246;7.372;2022-12-07T16:04:04;17.73;;;11.30;;
47429;SDS011;33181;49.246;7.372;2022-12-07T16:06:30;18.13;;;11.80;;
47429;SDS011;33181;49.246;7.372;2022-12-07T16:08:56;20.77;;;11.80;;
47429;SDS011;33181;49.246;7.372;2022-12-07T16:11:22;18.43;;;11.60;;
47429;SDS011;33181;49.246;7.372;2022-12-07T16:13:49;17.93;;;11.03;;
47429;SDS011;33181;49.246;7.372;2022-12-07T16:16:15;18.90;;;11.80;;
47429;SDS011;33181;49.246;7.372;2022-12-07T16:18:44;20.77;;;11.40;;
47429;SDS011;33181;49.246;7.372;2022-12-07T16:21:11;17.93;;;12.30;;
47429;SDS011;33181;49.246;7.372;2022-12-07T16:23:38;17.00;;;10.80;;
47429;SDS011;33181;49.246;7.372;2022-12-07T16:26:05;19.80;;;11.03;;
47429;SDS011;33181;49.246;7.372;2022-12-07T16:28:43;14.70;;;9.67;;
47429;SDS011;33181;49.246;7.372;2022-12-07T16:31:10;15.67;;;9.70;;
47429;SDS011;33181;49.246;7.372;2022-12-07T16:33:39;15.07;;;10.00;;
47429;SDS011;33181;49.246;7.372;2022-12-07T16:36:07;14.67;;;9.23;;
47429;SDS011;33181;49.246;7.372;2022-12-07T16:38:35;14.60;;;10.27;;
47429;SDS011;33181;49.246;7.372;2022-12-07T16:41:01;20.47;;;11.00;;
47429;SDS011;33181;49.246;7.372;2022-12-07T16:43:30;22.40;;;10.80;;
47429;SDS011;33181;49.246;7.372;2022-12-07T16:45:56;18.80;;;10.80;;
47429;SDS011;33181;49.246;7.372;2022-12-07T16:48:22;17.53;;;10.20;;
47429;SDS011;33181;49.246;7.372;2022-12-07T16:50:48;16.27;;;9.30;;
47429;SDS011;33181;49.246;7.372;2022-12-07T16:53:14;19.90;;;9.33;;
47429;SDS011;33181;49.246;7.372;2022-12-07T16:55:44;15.90;;;9.90;;
47429;SDS011;33181;49.246;7.372;2022-12-07T16:58:11;18.13;;;10.80;;
47429;SDS011;33181;49.246;7.372;2022-12-07T17:00:39;18.20;;;10.50;;
47429;SDS011;33181;49.246;7.372;2022-12-07T17:03:07;19.53;;;11.67;;
47429;SDS011;33181;49.246;7.372;2022-12-07T17:05:36;20.40;;;12.07;;
47429;SDS011;33181;49.246;7.372;2022-12-07T17:08:04;19.67;;;11.83;;